Hawthorn Wds, Illinois
Current Conditions -  °F | °C
As of 3:52 AM on Monday 22 Dec 2014 (Local Time) from KPWK Reporting Station
Haze Haze  
Wind Chill: 22°   Ceiling: Unl
Heat Index: 29°   Visibility: 6mi
Dew Point: 25°   Wind: 7mph
Humidity: 85%   Direction: 150°SSE
Pressure: 29.98"   Gusts: NA
Location:  42.201°N, 88.0504°W
Report Text: KPWK 220952Z AUTO 15006KT 6SM BR CLR M02/M04 A2998 RMK AO2 SLP157 T10171039
Loading
Personal Weather Stations






























Interactive Weather Map New forecast layout! Learn more

10-Day Weather Forecast

Advertisements
Track Severe Weather on mobile